Time;durP1;ratioP1;P1;durP2;ratioP2;P2;SDS_P1;SDS_P2;PMS_P1;PMS_P2;Temp;Humidity;BMP_temperature;BMP_pressure;BME280_temperature;BME280_humidity;BME280_pressure;Samples;Min_cycle;Max_cycle;Signal;HPM_P1;HPM_P2
2023/03/02 00:00:00;;;;;;;22.45;15.18;;;28.50;83.70;;;;;;5083936;28;20043;-53
2023/03/02 00:02:28;;;;;;;23.10;15.50;;;28.50;83.90;;;;;;5083981;28;20028;-49
2023/03/02 00:04:57;;;;;;;20.83;14.50;;;28.40;83.90;;;;;;5083830;28;20063;-53
2023/03/02 00:07:30;;;;;;;19.25;14.52;;;28.40;83.90;;;;;;5083760;28;20091;-53
2023/03/02 00:09:57;;;;;;;17.75;14.75;;;28.40;84.00;;;;;;5083651;28;20196;-59
2023/03/02 00:12:27;;;;;;;18.75;14.60;;;28.40;84.00;;;;;;5083710;28;20407;-55
2023/03/02 00:14:55;;;;;;;16.80;13.75;;;28.40;83.70;;;;;;5083749;28;20020;-48
2023/03/02 00:17:30;;;;;;;17.13;13.43;;;28.30;83.30;;;;;;5083930;28;20020;-47
2023/03/02 00:20:08;;;;;;;16.02;14.35;;;28.30;82.90;;;;;;5083540;28;20101;-50
2023/03/02 00:22:35;;;;;;;16.80;14.65;;;28.30;83.00;;;;;;5083518;28;20033;-54
2023/03/02 00:25:05;;;;;;;19.35;13.75;;;28.30;82.70;;;;;;5083803;28;20058;-47
2023/03/02 00:27:31;;;;;;;16.02;13.73;;;28.20;82.50;;;;;;5083676;28;20060;-53
2023/03/02 00:29:58;;;;;;;17.50;14.30;;;28.20;82.60;;;;;;5083400;28;20016;-48
2023/03/02 00:32:25;;;;;;;15.93;14.00;;;28.20;82.60;;;;;;5083551;28;20034;-51
2023/03/02 00:34:52;;;;;;;16.13;14.43;;;28.20;82.50;;;;;;5083553;28;20037;-52
2023/03/02 00:37:19;;;;;;;16.10;13.88;;;28.20;82.50;;;;;;5083429;28;20023;-48
2023/03/02 00:39:46;;;;;;;17.23;14.82;;;28.10;82.60;;;;;;5083496;28;20017;-53
2023/03/02 00:42:13;;;;;;;18.83;15.02;;;28.20;82.60;;;;;;5083445;28;20020;-55
2023/03/02 00:44:39;;;;;;;21.38;14.70;;;28.10;82.50;;;;;;5083353;28;20277;-53
2023/03/02 00:47:06;;;;;;;18.48;15.80;;;28.20;82.50;;;;;;5083476;28;20036;-51
2023/03/02 00:49:35;;;;;;;16.92;15.07;;;28.10;82.50;;;;;;5083409;28;20374;-53
2023/03/02 00:52:02;;;;;;;19.02;14.98;;;28.10;82.40;;;;;;5083174;28;20040;-49
2023/03/02 00:54:29;;;;;;;20.33;14.77;;;28.10;82.40;;;;;;5083126;28;20255;-49
2023/03/02 00:56:56;;;;;;;21.05;14.45;;;28.10;82.40;;;;;;5083384;28;20354;-54
2023/03/02 00:59:25;;;;;;;15.55;13.75;;;28.00;82.40;;;;;;5083188;28;20236;-54
2023/03/02 01:02:00;;;;;;;15.70;14.10;;;28.00;82.30;;;;;;5083718;28;20020;-56
2023/03/02 01:04:33;;;;;;;17.58;14.15;;;28.00;82.00;;;;;;5086247;28;20028;-52
2023/03/02 01:07:06;;;;;;;26.02;14.20;;;28.00;81.90;;;;;;5086930;28;20035;-52
2023/03/02 01:09:33;;;;;;;15.90;14.13;;;27.90;81.80;;;;;;5086796;28;20032;-51
2023/03/02 01:12:02;;;;;;;15.85;14.35;;;27.90;81.60;;;;;;5086736;28;20032;-54
2023/03/02 01:14:29;;;;;;;14.82;13.23;;;27.90;81.30;;;;;;5086542;28;20108;-49
2023/03/02 01:16:55;;;;;;;15.73;13.63;;;27.90;81.20;;;;;;5086684;28;20025;-55
2023/03/02 01:19:22;;;;;;;16.42;13.23;;;27.90;81.10;;;;;;5086667;28;20021;-53
2023/03/02 01:21:49;;;;;;;16.40;13.65;;;27.90;80.70;;;;;;5086447;28;20238;-51
2023/03/02 01:24:16;;;;;;;14.48;12.93;;;27.90;80.60;;;;;;5086503;28;20025;-52
2023/03/02 01:26:42;;;;;;;14.38;12.93;;;27.70;80.20;;;;;;5086328;28;20024;-53
2023/03/02 01:29:10;;;;;;;15.57;13.77;;;27.40;81.40;;;;;;5086562;28;20343;-53
2023/03/02 01:31:37;;;;;;;17.35;13.23;;;27.50;81.40;;;;;;5086360;28;20079;-53
2023/03/02 01:34:04;;;;;;;26.58;14.38;;;27.60;81.20;;;;;;5086119;28;20064;-54
2023/03/02 01:36:32;;;;;;;25.15;14.45;;;27.70;81.00;;;;;;5086265;28;20013;-55
2023/03/02 01:38:59;;;;;;;21.70;14.70;;;27.70;80.70;;;;;;5086501;28;20029;-49
2023/03/02 01:41:26;;;;;;;24.55;15.10;;;27.80;80.60;;;;;;5086246;28;20021;-54
2023/03/02 01:43:55;;;;;;;26.83;15.70;;;27.80;80.40;;;;;;5086851;28;20027;-55
2023/03/02 01:46:23;;;;;;;29.67;15.35;;;27.80;80.20;;;;;;5086279;28;20032;-57
2023/03/02 01:48:59;;;;;;;20.23;14.55;;;27.80;80.00;;;;;;5084271;28;20024;-52
2023/03/02 01:51:29;;;;;;;20.60;14.38;;;27.80;80.00;;;;;;5075563;28;20035;-50
2023/03/02 01:54:01;;;;;;;21.75;14.85;;;27.80;79.70;;;;;;5081515;28;20040;-50
2023/03/02 01:56:33;;;;;;;18.83;13.85;;;27.80;79.60;;;;;;5077378;28;20095;-46
2023/03/02 01:59:01;;;;;;;;;;;27.80;79.50;;;;;;5079673;28;20032;-48
2023/03/02 02:01:31;;;;;;;19.33;13.75;;;27.80;79.40;;;;;;5072019;28;20100;-47
2023/03/02 02:03:58;;;;;;;17.10;13.90;;;27.80;79.80;;;;;;5075335;28;20032;-46
2023/03/02 02:06:36;;;;;;;21.48;13.95;;;27.80;79.90;;;;;;5075152;28;20028;-48
2023/03/02 02:09:07;;;;;;;17.33;14.15;;;27.80;79.40;;;;;;5085368;28;20060;-48
2023/03/02 02:11:34;;;;;;;18.60;13.63;;;27.80;79.40;;;;;;5085454;28;20304;-52
2023/03/02 02:14:02;;;;;;;15.85;14.30;;;27.80;79.40;;;;;;5078547;28;20032;-51
2023/03/02 02:16:31;;;;;;;15.45;13.65;;;27.80;79.30;;;;;;5075209;28;20225;-52
2023/03/02 02:18:58;;;;;;;23.48;15.02;;;27.80;79.30;;;;;;5064005;28;20025;-55
2023/03/02 02:21:27;;;;;;;22.02;14.70;;;27.90;79.50;;;;;;5063542;28;20359;-48
2023/03/02 02:24:15;;;;;;;19.58;13.40;;;27.90;79.60;;;;;;5067229;28;20052;-52
2023/03/02 02:26:53;;;;;;;19.98;13.68;;;27.90;79.40;;;;;;5077951;28;20033;-54
2023/03/02 02:29:23;;;;;;;17.77;14.57;;;27.90;79.40;;;;;;5085604;28;20267;-50
2023/03/02 02:32:15;;;;;;;20.77;14.00;;;27.80;79.20;;;;;;5085275;28;20255;-52
2023/03/02 02:34:46;;;;;;;18.63;14.60;;;27.90;79.10;;;;;;5058303;28;20052;-47
2023/03/02 02:37:45;;;;;;;17.33;13.00;;;27.90;79.10;;;;;;5084158;28;20033;-56
2023/03/02 02:40:21;;;;;;;19.45;13.88;;;27.90;78.90;;;;;;5080288;28;20067;-51
2023/03/02 02:42:50;;;;;;;16.85;13.55;;;27.90;78.60;;;;;;5078024;28;20213;-49
2023/03/02 02:45:26;;;;;;;15.68;13.18;;;27.90;78.80;;;;;;5078812;28;20102;-51
2023/03/02 02:47:54;;;;;;;21.33;13.80;;;27.90;78.80;;;;;;5069972;28;20033;-53
2023/03/02 02:50:28;;;;;;;15.13;13.25;;;27.90;78.60;;;;;;5076765;28;20367;-52
2023/03/02 02:53:04;;;;;;;17.05;13.13;;;27.90;78.40;;;;;;5065141;28;20309;-46
2023/03/02 02:55:32;;;;;;;15.82;13.20;;;27.90;78.40;;;;;;5069864;28;20028;-51
2023/03/02 02:58:08;;;;;;;17.23;13.43;;;27.90;78.30;;;;;;5069846;28;20052;-48
2023/03/02 03:00:36;;;;;;;17.58;13.45;;;27.90;78.40;;;;;;5075093;28;20268;-53
2023/03/02 03:03:28;;;;;;;15.95;13.65;;;27.90;78.30;;;;;;5074181;28;20119;-51
2023/03/02 03:06:00;;;;;;;21.77;13.85;;;27.90;78.40;;;;;;5076971;28;20078;-51
2023/03/02 03:08:47;;;;;;;;;;;27.90;78.40;;;;;;5073635;28;20056;-46
2023/03/02 03:11:26;;;;;;;16.13;13.80;;;27.90;78.40;;;;;;5079252;28;19909;-48
2023/03/02 03:14:30;;;;;;;18.05;14.20;;;27.80;78.50;;;;;;5071296;28;20067;-50
2023/03/02 03:16:57;;;;;;;17.35;13.70;;;27.80;78.20;;;;;;5016880;28;20092;-47
2023/03/02 03:19:31;;;;;;;16.25;14.02;;;27.80;78.20;;;;;;5052513;28;20045;-54
2023/03/02 03:22:00;;;;;;;15.90;13.90;;;27.80;78.20;;;;;;5068138;28;20045;-47
2023/03/02 03:24:29;;;;;;;19.20;13.68;;;27.80;78.10;;;;;;5084242;28;20033;-51
2023/03/02 03:26:56;;;;;;;15.07;13.43;;;27.80;78.10;;;;;;5083846;28;20054;-49
2023/03/02 03:29:25;;;;;;;15.77;13.20;;;27.80;78.10;;;;;;5078028;28;20032;-49
2023/03/02 03:31:53;;;;;;;16.63;13.75;;;27.80;78.00;;;;;;5082314;28;20104;-48
2023/03/02 03:34:21;;;;;;;14.95;13.30;;;27.80;78.00;;;;;;5084406;28;20034;-47
2023/03/02 03:36:48;;;;;;;14.60;13.15;;;27.80;78.00;;;;;;5084322;28;20368;-50
2023/03/02 03:39:15;;;;;;;15.93;14.27;;;27.80;77.80;;;;;;5084120;28;20340;-55
2023/03/02 03:41:42;;;;;;;14.77;13.25;;;27.80;77.70;;;;;;5079731;28;20012;-45
2023/03/02 03:44:10;;;;;;;14.68;13.05;;;27.80;77.60;;;;;;5076128;28;20040;-50
2023/03/02 03:46:38;;;;;;;14.23;12.93;;;27.80;77.60;;;;;;5084048;28;20020;-47
2023/03/02 03:49:05;;;;;;;14.68;13.38;;;27.80;77.50;;;;;;5084416;28;20232;-49
2023/03/02 03:51:34;;;;;;;14.30;12.88;;;27.80;77.50;;;;;;5075466;28;20016;-51
2023/03/02 03:54:02;;;;;;;14.40;12.57;;;27.80;77.30;;;;;;5063637;28;19908;-54
2023/03/02 03:56:32;;;;;;;14.45;13.05;;;27.80;77.20;;;;;;5063978;28;20056;-51
2023/03/02 03:59:07;;;;;;;15.43;13.20;;;27.80;77.70;;;;;;5064022;28;20021;-50
2023/03/02 04:01:40;;;;;;;15.88;13.07;;;27.70;77.10;;;;;;5063747;28;20052;-47
2023/03/02 04:04:09;;;;;;;13.98;12.65;;;27.70;77.10;;;;;;5063952;28;20276;-47
2023/03/02 04:06:36;;;;;;;16.20;13.27;;;27.80;77.10;;;;;;5063589;28;20029;-46
2023/03/02 04:09:04;;;;;;;14.18;12.68;;;27.70;77.00;;;;;;5063732;28;20341;-49
2023/03/02 04:11:33;;;;;;;14.75;13.38;;;27.70;77.00;;;;;;5063752;28;20313;-46
2023/03/02 04:13:59;;;;;;;16.20;12.85;;;27.70;77.00;;;;;;5063573;28;20072;-54
2023/03/02 04:16:26;;;;;;;14.13;12.70;;;27.70;77.10;;;;;;5071022;28;20048;-48
2023/03/02 04:18:53;;;;;;;14.68;13.13;;;27.70;77.00;;;;;;5067505;28;20088;-47
2023/03/02 04:21:20;;;;;;;14.23;12.82;;;27.70;77.10;;;;;;5063424;28;20087;-44
2023/03/02 04:23:47;;;;;;;15.73;13.23;;;27.70;77.30;;;;;;5064157;28;20037;-45
2023/03/02 04:26:13;;;;;;;16.85;15.20;;;27.70;77.40;;;;;;5063771;28;20040;-51
2023/03/02 04:28:40;;;;;;;20.15;17.30;;;27.70;77.50;;;;;;5063965;28;20226;-47
2023/03/02 04:31:07;;;;;;;19.67;16.92;;;27.60;77.40;;;;;;5065988;28;20260;-52
2023/03/02 04:33:33;;;;;;;19.80;17.83;;;27.60;77.30;;;;;;5072762;28;20025;-52
2023/03/02 04:36:00;;;;;;;18.13;16.27;;;27.60;77.30;;;;;;5063481;28;20208;-48
2023/03/02 04:38:28;;;;;;;19.25;15.75;;;27.70;77.40;;;;;;5067195;28;20272;-47
2023/03/02 04:40:58;;;;;;;15.85;14.15;;;27.60;77.10;;;;;;5067744;28;20028;-49
2023/03/02 04:43:25;;;;;;;15.40;13.82;;;27.70;77.00;;;;;;5067870;28;20036;-45
2023/03/02 04:45:53;;;;;;;16.98;13.35;;;27.60;76.80;;;;;;5067577;28;20025;-49
2023/03/02 04:48:21;;;;;;;14.50;12.90;;;27.60;76.80;;;;;;5067834;28;20317;-48
2023/03/02 04:50:48;;;;;;;14.50;13.02;;;27.70;76.80;;;;;;5067365;28;20032;-47
2023/03/02 04:53:15;;;;;;;14.07;12.70;;;27.60;76.70;;;;;;5067753;28;20209;-46
2023/03/02 04:55:42;;;;;;;15.82;12.40;;;27.60;76.80;;;;;;5067285;28;20041;-47
2023/03/02 04:58:08;;;;;;;13.65;12.25;;;27.60;77.00;;;;;;5067539;28;20022;-47
2023/03/02 05:00:35;;;;;;;14.47;12.07;;;27.60;77.00;;;;;;5067260;28;20037;-50
2023/03/02 05:03:03;;;;;;;13.82;12.43;;;27.60;77.00;;;;;;5067104;28;20198;-58
2023/03/02 05:05:30;;;;;;;13.65;12.15;;;27.60;77.30;;;;;;5067043;28;20028;-47
2023/03/02 05:07:59;;;;;;;13.40;12.00;;;27.60;77.30;;;;;;5067393;28;20100;-50
2023/03/02 05:10:27;;;;;;;13.97;12.50;;;27.60;77.40;;;;;;5066935;28;20033;-54
2023/03/02 05:12:57;;;;;;;14.93;12.90;;;27.60;77.60;;;;;;5067045;28;20245;-51
2023/03/02 05:15:27;;;;;;;13.98;12.57;;;27.60;77.60;;;;;;5076573;28;20051;-47
2023/03/02 05:17:54;;;;;;;16.10;13.43;;;27.60;77.70;;;;;;5071864;28;20028;-47
2023/03/02 05:20:26;;;;;;;14.00;12.70;;;27.60;77.80;;;;;;5073956;28;20055;-47
2023/03/02 05:22:57;;;;;;;13.77;12.40;;;27.60;77.90;;;;;;5067119;28;20017;-48
2023/03/02 05:25:25;;;;;;;14.43;12.88;;;27.60;78.00;;;;;;5066838;28;20233;-52
2023/03/02 05:27:52;;;;;;;13.98;12.48;;;27.60;78.00;;;;;;5066901;28;20186;-47
2023/03/02 05:30:19;;;;;;;15.90;12.77;;;27.60;78.00;;;;;;5066751;28;20061;-53
2023/03/02 05:32:46;;;;;;;14.40;12.90;;;27.60;78.60;;;;;;5066850;28;20032;-49
2023/03/02 05:35:14;;;;;;;13.77;12.38;;;27.60;78.10;;;;;;5066529;28;20025;-47
2023/03/02 05:37:43;;;;;;;15.00;12.85;;;27.60;78.00;;;;;;5066792;28;20096;-52
2023/03/02 05:40:13;;;;;;;18.73;12.97;;;27.50;78.10;;;;;;5066660;28;20025;-49
2023/03/02 05:42:41;;;;;;;14.05;12.55;;;27.60;78.30;;;;;;5066647;28;20079;-53
2023/03/02 05:45:12;;;;;;;14.82;13.07;;;27.50;78.30;;;;;;5072421;28;20367;-51
2023/03/02 05:47:39;;;;;;;19.88;13.25;;;27.50;78.30;;;;;;5070964;28;20135;-53
2023/03/02 05:50:06;;;;;;;19.48;13.05;;;27.50;78.40;;;;;;5065870;28;20328;-55
2023/03/02 05:52:32;;;;;;;15.60;13.00;;;27.50;78.40;;;;;;5066457;28;20071;-47
2023/03/02 05:54:59;;;;;;;15.23;12.25;;;27.50;78.50;;;;;;5066120;28;20040;-48
2023/03/02 05:57:26;;;;;;;13.82;12.52;;;27.50;78.50;;;;;;5066562;28;20025;-49
2023/03/02 05:59:53;;;;;;;13.57;12.27;;;27.50;78.40;;;;;;5066275;28;20070;-49
2023/03/02 06:02:19;;;;;;;13.50;12.10;;;27.50;78.50;;;;;;5066204;28;20263;-45
2023/03/02 06:04:46;;;;;;;12.90;11.73;;;27.50;78.40;;;;;;5066291;28;20025;-47
2023/03/02 06:07:13;;;;;;;14.93;12.70;;;27.50;78.40;;;;;;5066285;28;20096;-53
2023/03/02 06:09:40;;;;;;;14.73;13.25;;;27.50;78.50;;;;;;5065859;28;20024;-48
2023/03/02 06:12:08;;;;;;;14.98;13.48;;;27.40;78.60;;;;;;5066255;28;20037;-49
2023/03/02 06:14:35;;;;;;;15.00;13.38;;;27.40;78.70;;;;;;5066107;28;20249;-45
2023/03/02 06:17:02;;;;;;;15.93;12.75;;;27.40;78.70;;;;;;5078220;28;20017;-52
2023/03/02 06:19:29;;;;;;;15.45;13.88;;;27.40;78.80;;;;;;5075193;28;20336;-48
2023/03/02 06:21:55;;;;;;;15.18;13.68;;;27.40;78.90;;;;;;5079022;28;20070;-47
2023/03/02 06:24:22;;;;;;;14.32;13.00;;;27.40;78.80;;;;;;5068659;28;20092;-46
2023/03/02 06:26:48;;;;;;;14.90;13.30;;;27.40;78.90;;;;;;5075698;28;20455;-47
2023/03/02 06:29:15;;;;;;;17.83;13.63;;;27.40;78.90;;;;;;5076576;28;20060;-47
2023/03/02 06:31:41;;;;;;;14.37;12.93;;;27.40;78.80;;;;;;5065563;28;20039;-48
2023/03/02 06:34:08;;;;;;;14.15;12.75;;;27.40;78.80;;;;;;5072976;28;20024;-46
2023/03/02 06:36:37;;;;;;;14.48;12.98;;;27.40;78.80;;;;;;5078137;28;20044;-49
2023/03/02 06:39:05;;;;;;;14.25;12.80;;;27.40;78.70;;;;;;5077088;28;20105;-53
2023/03/02 06:41:32;;;;;;;14.25;12.75;;;27.40;78.60;;;;;;5065684;28;20017;-52
2023/03/02 06:44:00;;;;;;;14.00;12.05;;;27.40;78.50;;;;;;5065324;28;20037;-46
2023/03/02 06:46:26;;;;;;;13.73;12.32;;;27.40;78.40;;;;;;5065359;28;20052;-45
2023/03/02 06:48:53;;;;;;;14.05;12.65;;;27.40;78.30;;;;;;5065019;28;20032;-53
2023/03/02 06:51:19;;;;;;;13.68;12.38;;;27.40;78.30;;;;;;5065352;28;20100;-46
2023/03/02 06:53:46;;;;;;;13.88;12.48;;;27.40;78.10;;;;;;5065562;28;20176;-47
2023/03/02 06:56:12;;;;;;;13.27;12.13;;;27.40;78.00;;;;;;5064937;28;20044;-54
2023/03/02 06:58:39;;;;;;;14.27;12.82;;;27.40;77.90;;;;;;5066182;28;20020;-54
2023/03/02 07:01:06;;;;;;;14.40;12.90;;;27.40;77.90;;;;;;5073806;28;20033;-50
2023/03/02 07:03:34;;;;;;;13.52;12.23;;;27.40;77.90;;;;;;5065236;28;20043;-46
2023/03/02 07:06:01;;;;;;;14.88;12.90;;;27.40;77.80;;;;;;5065097;28;20025;-47
2023/03/02 07:08:28;;;;;;;14.25;12.85;;;27.40;77.90;;;;;;5065261;28;20044;-48
2023/03/02 07:10:55;;;;;;;14.93;13.20;;;27.40;77.90;;;;;;5064636;28;20025;-47
2023/03/02 07:13:21;;;;;;;14.68;13.27;;;27.40;78.00;;;;;;5065090;28;20029;-50
2023/03/02 07:15:48;;;;;;;14.93;13.48;;;27.40;78.00;;;;;;5064709;28;20032;-46
2023/03/02 07:18:15;;;;;;;14.70;13.18;;;27.40;77.90;;;;;;5064954;28;20301;-53
2023/03/02 07:20:41;;;;;;;14.80;13.23;;;27.40;78.00;;;;;;5064491;28;20261;-47
2023/03/02 07:23:08;;;;;;;14.68;13.23;;;27.40;78.00;;;;;;5064874;28;20017;-51
2023/03/02 07:25:35;;;;;;;14.93;13.43;;;27.40;78.10;;;;;;5064400;28;20055;-55
2023/03/02 07:28:02;;;;;;;14.68;13.35;;;27.30;78.20;;;;;;5065009;28;20028;-54
2023/03/02 07:30:29;;;;;;;16.10;13.13;;;27.30;78.20;;;;;;5064540;28;20035;-50
2023/03/02 07:32:56;;;;;;;15.73;14.05;;;27.30;78.40;;;;;;5064167;28;20041;-47
2023/03/02 07:35:23;;;;;;;14.95;13.43;;;27.30;78.50;;;;;;5064376;28;20048;-47
2023/03/02 07:37:51;;;;;;;14.50;13.13;;;27.30;78.60;;;;;;5064761;28;20029;-50
2023/03/02 07:40:18;;;;;;;14.60;13.20;;;27.30;78.70;;;;;;5064157;28;20037;-47
2023/03/02 07:42:45;;;;;;;15.00;13.60;;;27.30;79.30;;;;;;5064616;28;20054;-46
2023/03/02 07:45:11;;;;;;;14.63;13.23;;;27.30;78.80;;;;;;5064227;28;20044;-50
2023/03/02 07:47:38;;;;;;;15.43;13.77;;;27.30;78.80;;;;;;5063928;28;20115;-46
2023/03/02 07:50:05;;;;;;;15.65;14.00;;;27.30;78.80;;;;;;5064232;28;20036;-53
2023/03/02 07:52:32;;;;;;;14.88;13.23;;;27.30;78.90;;;;;;5064329;28;20032;-53
2023/03/02 07:54:58;;;;;;;14.30;12.82;;;27.30;78.90;;;;;;5063897;28;20051;-46
2023/03/02 07:57:25;;;;;;;15.85;14.25;;;27.30;78.90;;;;;;5067695;28;20296;-49
2023/03/02 07:59:51;;;;;;;14.98;12.85;;;27.30;79.00;;;;;;5077041;28;20028;-48
2023/03/02 08:02:19;;;;;;;15.27;13.52;;;27.30;79.00;;;;;;5068053;28;20029;-47
2023/03/02 08:04:46;;;;;;;15.00;13.50;;;27.30;79.00;;;;;;5064054;28;20033;-47
2023/03/02 08:07:12;;;;;;;15.02;13.52;;;27.30;79.00;;;;;;5063863;28;20021;-46
2023/03/02 08:09:39;;;;;;;15.77;13.55;;;27.30;78.90;;;;;;5063715;28;20321;-46
2023/03/02 08:12:06;;;;;;;14.88;13.30;;;27.30;78.80;;;;;;5063741;28;20066;-46
2023/03/02 08:14:32;;;;;;;14.35;12.93;;;27.30;78.60;;;;;;5063717;28;20036;-53
2023/03/02 08:16:59;;;;;;;14.73;13.18;;;27.30;78.50;;;;;;5063797;28;20053;-53
2023/03/02 08:19:25;;;;;;;15.05;13.07;;;27.30;78.50;;;;;;5063748;28;20028;-54
2023/03/02 08:21:52;;;;;;;14.15;12.75;;;27.30;78.40;;;;;;5063654;28;20049;-50
2023/03/02 08:24:19;;;;;;;14.77;13.27;;;27.30;78.40;;;;;;5063724;28;20056;-50
2023/03/02 08:26:45;;;;;;;12.82;11.63;;;27.30;78.50;;;;;;5063483;28;20074;-47
2023/03/02 08:29:12;;;;;;;14.77;13.25;;;27.30;78.40;;;;;;5063879;28;20032;-47
2023/03/02 08:31:38;;;;;;;14.95;13.45;;;27.30;78.30;;;;;;5068122;28;20020;-54
2023/03/02 08:34:05;;;;;;;16.05;12.82;;;27.30;78.20;;;;;;5083466;28;20037;-48
2023/03/02 08:36:32;;;;;;;14.98;13.20;;;27.30;78.20;;;;;;5083559;28;20064;-48
2023/03/02 08:38:58;;;;;;;14.82;12.98;;;27.30;78.30;;;;;;5083726;28;20033;-50
2023/03/02 08:41:25;;;;;;;17.38;12.55;;;27.30;78.40;;;;;;5083410;28;20024;-50
2023/03/02 08:43:54;;;;;;;13.73;12.48;;;27.30;78.40;;;;;;5084043;28;20221;-47
2023/03/02 08:46:21;;;;;;;16.05;13.18;;;27.30;78.50;;;;;;5083477;28;20033;-47
2023/03/02 08:48:50;;;;;;;16.10;13.20;;;27.30;78.40;;;;;;5083751;28;20025;-47
2023/03/02 08:51:19;;;;;;;14.90;13.02;;;27.30;78.40;;;;;;5083416;28;20037;-46
2023/03/02 08:53:49;;;;;;;14.38;12.98;;;27.30;78.50;;;;;;5083754;28;20033;-47
2023/03/02 08:56:25;;;;;;;14.55;12.27;;;27.30;78.50;;;;;;5083224;28;20064;-48
2023/03/02 08:58:53;;;;;;;14.18;12.75;;;27.30;78.50;;;;;;5083845;28;20033;-49
2023/03/02 09:01:25;;;;;;;14.25;12.63;;;27.30;78.60;;;;;;5083281;28;20028;-50
2023/03/02 09:03:52;;;;;;;15.70;13.02;;;27.30;78.60;;;;;;5083802;28;20048;-46
2023/03/02 09:06:19;;;;;;;13.93;12.45;;;27.20;78.60;;;;;;5083245;28;20028;-46
2023/03/02 09:08:46;;;;;;;14.32;12.82;;;27.30;78.60;;;;;;5083492;28;20023;-47
2023/03/02 09:11:13;;;;;;;14.85;12.88;;;27.20;78.50;;;;;;5083285;28;20087;-46
2023/03/02 09:13:40;;;;;;;14.43;12.77;;;27.30;78.60;;;;;;5083614;28;20033;-55
2023/03/02 09:16:07;;;;;;;14.38;12.88;;;27.30;78.60;;;;;;5083365;28;20028;-52
2023/03/02 09:18:35;;;;;;;15.40;12.40;;;27.30;78.60;;;;;;5083518;28;20099;-54
2023/03/02 09:21:02;;;;;;;14.93;12.70;;;27.30;78.70;;;;;;5083020;28;20049;-46
2023/03/02 09:23:29;;;;;;;13.88;12.45;;;27.20;78.70;;;;;;5083544;28;20036;-48
2023/03/02 09:25:56;;;;;;;13.75;12.40;;;27.20;78.90;;;;;;5086785;28;20036;-52
2023/03/02 09:28:23;;;;;;;13.63;12.27;;;27.20;79.00;;;;;;5086830;28;20224;-52
2023/03/02 09:30:52;;;;;;;14.18;12.70;;;27.20;79.00;;;;;;5086602;28;20036;-52
2023/03/02 09:33:20;;;;;;;14.00;12.57;;;27.20;79.10;;;;;;5086967;28;20087;-54
2023/03/02 09:35:47;;;;;;;15.52;12.85;;;27.20;79.30;;;;;;5086675;28;20074;-52
2023/03/02 09:38:17;;;;;;;15.65;12.77;;;27.20;79.40;;;;;;5086803;28;20340;-44
2023/03/02 09:41:08;;;;;;;14.13;12.70;;;27.20;79.50;;;;;;5077822;28;20028;-47
2023/03/02 09:44:03;;;;;;;16.17;12.68;;;27.20;79.60;;;;;;5072453;28;20076;-50
2023/03/02 09:46:48;;;;;;;15.95;12.98;;;27.20;79.80;;;;;;5072640;28;20083;-50
2023/03/02 09:49:32;;;;;;;15.77;13.60;;;27.10;79.80;;;;;;5073275;28;20024;-48
2023/03/02 09:52:31;;;;;;;15.00;13.02;;;27.10;79.90;;;;;;5086177;28;20036;-49
2023/03/02 09:55:06;;;;;;;14.70;13.38;;;27.10;80.10;;;;;;5086171;28;20028;-48
2023/03/02 09:57:36;;;;;;;14.43;12.90;;;27.10;80.30;;;;;;5086429;28;20024;-50
2023/03/02 10:00:34;;;;;;;15.43;13.57;;;27.10;80.30;;;;;;5086115;28;20370;-49
2023/03/02 10:03:02;;;;;;;16.10;13.63;;;27.10;80.40;;;;;;5080431;28;20036;-49
2023/03/02 10:05:49;;;;;;;14.07;12.52;;;27.10;80.60;;;;;;5085910;28;20324;-46
2023/03/02 10:08:28;;;;;;;15.75;13.25;;;27.10;80.70;;;;;;5086038;28;20041;-44
2023/03/02 10:11:13;;;;;;;15.88;13.30;;;27.10;80.80;;;;;;5085818;28;20032;-50
2023/03/02 10:13:45;;;;;;;14.02;12.50;;;27.10;81.00;;;;;;5086368;28;20033;-52
2023/03/02 10:16:34;;;;;;;15.10;13.40;;;27.10;81.10;;;;;;5085992;28;20058;-52
2023/03/02 10:19:17;;;;;;;16.38;13.23;;;27.10;81.20;;;;;;5085869;28;20276;-54
2023/03/02 10:21:48;;;;;;;15.50;13.32;;;27.10;81.40;;;;;;5065491;28;20045;-54
2023/03/02 10:24:55;;;;;;;15.70;13.90;;;27.00;81.50;;;;;;5065631;28;20066;-46
2023/03/02 10:27:38;;;;;;;16.35;14.20;;;27.10;81.70;;;;;;5065132;28;20041;-52
2023/03/02 10:30:17;;;;;;;16.17;14.48;;;27.00;81.70;;;;;;5065789;28;20247;-49
2023/03/02 10:32:48;;;;;;;16.45;14.10;;;27.00;82.00;;;;;;5065599;28;20305;-45
2023/03/02 10:35:21;;;;;;;16.75;14.63;;;27.00;82.20;;;;;;5065211;28;20336;-47
2023/03/02 10:38:03;;;;;;;17.75;15.23;;;27.00;82.40;;;;;;5065610;28;20359;-46
2023/03/02 10:40:41;;;;;;;16.30;14.57;;;27.00;82.60;;;;;;5065374;28;20284;-47
2023/03/02 10:43:15;;;;;;;17.25;15.40;;;27.00;82.70;;;;;;5065656;28;20021;-50
2023/03/02 10:45:41;;;;;;;22.63;15.20;;;27.00;82.90;;;;;;5065166;28;20233;-50
2023/03/02 10:48:13;;;;;;;16.58;14.82;;;27.00;83.00;;;;;;5065115;28;20033;-50
2023/03/02 10:50:42;;;;;;;18.25;15.15;;;26.90;83.10;;;;;;5066710;28;20033;-51
2023/03/02 10:53:17;;;;;;;19.65;15.35;;;26.90;83.20;;;;;;5085219;28;20066;-51
2023/03/02 10:55:46;;;;;;;20.80;15.52;;;26.90;83.40;;;;;;5085027;28;20021;-49
2023/03/02 10:58:32;;;;;;;18.60;15.30;;;26.90;83.60;;;;;;5085172;28;20052;-46
2023/03/02 11:01:17;;;;;;;23.27;16.52;;;26.90;83.70;;;;;;5083738;28;20020;-47
2023/03/02 11:04:13;;;;;;;17.98;16.20;;;26.90;83.90;;;;;;5085198;28;20040;-50
2023/03/02 11:06:39;;;;;;;43.88;17.65;;;26.90;83.90;;;;;;5079694;28;20366;-53
2023/03/02 11:09:07;;;;;;;24.95;17.25;;;26.90;83.90;;;;;;5073230;28;20041;-54
2023/03/02 11:11:34;;;;;;;25.45;17.25;;;26.90;83.90;;;;;;5073145;28;20016;-52
2023/03/02 11:14:15;;;;;;;28.27;16.92;;;26.90;84.10;;;;;;5075232;28;20107;-48
2023/03/02 11:16:42;;;;;;;25.80;16.92;;;26.90;84.10;;;;;;5080765;28;20028;-49
2023/03/02 11:19:29;;;;;;;26.90;16.77;;;26.90;84.10;;;;;;5083380;28;20269;-47
2023/03/02 11:22:10;;;;;;;28.27;17.38;;;26.90;84.00;;;;;;5082428;28;20037;-48
2023/03/02 11:24:49;;;;;;;33.60;18.75;;;26.90;84.50;;;;;;5082568;28;20036;-51
2023/03/02 11:27:24;;;;;;;43.10;19.35;;;26.90;84.80;;;;;;5082482;28;20032;-49
2023/03/02 11:30:10;;;;;;;30.95;18.38;;;26.90;84.70;;;;;;5081474;28;20016;-47
2023/03/02 11:32:50;;;;;;;27.77;18.42;;;26.90;85.30;;;;;;5082520;28;20063;-56
2023/03/02 11:35:32;;;;;;;31.70;17.35;;;26.90;85.10;;;;;;5081614;28;20028;-52
2023/03/02 11:38:27;;;;;;;29.80;18.17;;;26.90;85.10;;;;;;5083355;28;20047;-47
2023/03/02 11:41:14;;;;;;;27.15;17.55;;;26.90;85.30;;;;;;5084846;28;20162;-51
2023/03/02 11:43:41;;;;;;;32.30;17.42;;;26.90;85.20;;;;;;5057463;28;20041;-51
2023/03/02 11:46:21;;;;;;;33.13;16.73;;;26.90;84.90;;;;;;5083902;28;20039;-48
2023/03/02 11:48:52;;;;;;;50.15;17.02;;;26.90;84.80;;;;;;5083869;28;20027;-49
2023/03/02 11:51:26;;;;;;;55.75;17.58;;;26.90;84.70;;;;;;5083533;28;20043;-50
2023/03/02 11:54:03;;;;;;;46.00;16.45;;;26.90;84.80;;;;;;5084305;28;20036;-51
2023/03/02 11:56:34;;;;;;;37.67;15.48;;;26.90;84.90;;;;;;5083941;28;20079;-54
2023/03/02 11:59:10;;;;;;;40.90;16.27;;;26.90;84.70;;;;;;5084050;28;20355;-49
2023/03/02 12:01:39;;;;;;;35.25;15.48;;;26.90;84.80;;;;;;5083906;28;20036;-53
2023/03/02 12:04:10;;;;;;;36.95;15.05;;;27.00;85.20;;;;;;5083924;28;20028;-53
2023/03/02 12:06:39;;;;;;;33.88;15.10;;;27.00;85.40;;;;;;5083736;28;20032;-50
2023/03/02 12:09:12;;;;;;;58.58;16.08;;;26.90;85.40;;;;;;5083812;28;20077;-54
2023/03/02 12:11:39;;;;;;;;;;;26.90;85.40;;;;;;5084162;28;20134;-52
2023/03/02 12:14:27;;;;;;;67.35;17.67;;;26.90;85.50;;;;;;5083567;28;20141;-52
2023/03/02 12:17:19;;;;;;;55.50;16.55;;;26.90;85.70;;;;;;5083738;28;20024;-50
2023/03/02 12:19:47;;;;;;;58.42;16.55;;;26.90;85.90;;;;;;5083817;28;20020;-52
2023/03/02 12:22:25;;;;;;;50.03;15.88;;;27.00;86.00;;;;;;5083579;28;20075;-51
2023/03/02 12:25:19;;;;;;;47.15;15.93;;;27.00;86.00;;;;;;5083618;28;20110;-48
2023/03/02 12:27:48;;;;;;;40.95;15.77;;;27.00;85.90;;;;;;5083753;28;20028;-57
2023/03/02 12:30:22;;;;;;;38.30;15.10;;;27.00;86.20;;;;;;5083691;28;20027;-47
2023/03/02 12:33:21;;;;;;;41.83;16.10;;;27.00;86.30;;;;;;5083411;28;20048;-50
2023/03/02 12:35:51;;;;;;;45.03;15.73;;;27.00;86.50;;;;;;5064877;28;20067;-53
2023/03/02 12:38:25;;;;;;;58.15;17.02;;;27.00;86.70;;;;;;5083792;28;20020;-50
2023/03/02 12:40:55;;;;;;;75.85;16.35;;;27.00;86.80;;;;;;5083454;28;20097;-47
2023/03/02 12:43:31;;;;;;;56.67;16.42;;;27.00;86.60;;;;;;5083837;28;20020;-47
2023/03/02 12:46:26;;;;;;;42.60;15.20;;;27.00;86.90;;;;;;5083439;28;20036;-48